Huvudsida
METAR-TAF:

METAR-TAF

Flygplatser :

Militär flygplats

Landivisiau, Frankrike

latitud: 48-31N, longitud: 004-09W, höjd: 106 m

Aktuellt väderrapport

Denna rapport gjordes för 21 minuter sedan, klockan 16:00 UTC
Vind 26 kt från nordost i byarna ända upp till 41 kt
Temperatur 7°C
Fuktighet 57%
Tryck 1033 hPa
Sikt 10 km eller mer
Spridda moln på en höjd av 4000 ft
Brutna moln på en höjd av 4700 ft
Mulet på en höjd av 5400 ft

METAR: LFRJ 291600Z AUTO 05026G41KT 9999 SCT040 BKN047 OVC054 07/M01 Q1033

Tid: 18:21 (16:21 UTC)


TAF: saknas

Aktuella väderrapporter och prognoser från 4000 flygplatser (METAR- och TAF-rapporter).

De tillgängliga stationerna syns som gula och röda prickar på kartan.

För musen över prickarna för att se namnen på stationerna.

Klicka sedan för att få väderrapporter och prognoser.

För att ändra kartan: Klicka på de gröna knapparna med ett svart kors på för att zooma in; den gröna knappen med ett streck på för att zooma ut; eller på de gröna pilarna för angränsande kartor.


METAR-TAF: